sensor_id;sensor_type;location;lat;lon;timestamp;temperature;humidity
42663;DHT22;44330;51.360;6.686;2022-10-23T00:01:54;12.50;94.60
42663;DHT22;44330;51.360;6.686;2022-10-23T00:04:22;12.50;94.60
42663;DHT22;44330;51.360;6.686;2022-10-23T00:06:50;12.50;94.60
42663;DHT22;44330;51.360;6.686;2022-10-23T00:09:19;12.40;94.60
42663;DHT22;44330;51.360;6.686;2022-10-23T00:11:46;12.40;94.60
42663;DHT22;44330;51.360;6.686;2022-10-23T00:14:13;12.40;94.60
42663;DHT22;44330;51.360;6.686;2022-10-23T00:16:39;12.40;94.70
42663;DHT22;44330;51.360;6.686;2022-10-23T00:19:05;12.40;94.70
42663;DHT22;44330;51.360;6.686;2022-10-23T00:21:31;12.30;94.60
42663;DHT22;44330;51.360;6.686;2022-10-23T00:23:57;12.30;94.70
42663;DHT22;44330;51.360;6.686;2022-10-23T00:26:22;12.30;94.70
42663;DHT22;44330;51.360;6.686;2022-10-23T00:28:50;12.30;94.70
42663;DHT22;44330;51.360;6.686;2022-10-23T00:31:17;12.30;94.70
42663;DHT22;44330;51.360;6.686;2022-10-23T00:33:44;12.30;94.70
42663;DHT22;44330;51.360;6.686;2022-10-23T00:36:11;12.30;94.80
42663;DHT22;44330;51.360;6.686;2022-10-23T00:38:38;12.40;94.80
42663;DHT22;44330;51.360;6.686;2022-10-23T00:41:04;12.40;94.80
42663;DHT22;44330;51.360;6.686;2022-10-23T00:43:31;12.40;94.80
42663;DHT22;44330;51.360;6.686;2022-10-23T00:45:57;12.40;94.80
42663;DHT22;44330;51.360;6.686;2022-10-23T00:48:23;12.40;94.80
42663;DHT22;44330;51.360;6.686;2022-10-23T00:50:49;12.40;94.80
42663;DHT22;44330;51.360;6.686;2022-10-23T00:53:16;12.50;94.80
42663;DHT22;44330;51.360;6.686;2022-10-23T00:55:44;12.50;94.80
42663;DHT22;44330;51.360;6.686;2022-10-23T00:58:12;12.50;94.80
42663;DHT22;44330;51.360;6.686;2022-10-23T01:00:48;12.50;94.70
42663;DHT22;44330;51.360;6.686;2022-10-23T01:03:16;12.50;94.70
42663;DHT22;44330;51.360;6.686;2022-10-23T01:06:07;12.50;94.60
42663;DHT22;44330;51.360;6.686;2022-10-23T01:11:44;12.50;94.60
42663;DHT22;44330;51.360;6.686;2022-10-23T01:14:26;12.60;94.60
42663;DHT22;44330;51.360;6.686;2022-10-23T01:28:00;12.60;94.40
42663;DHT22;44330;51.360;6.686;2022-10-23T01:30:28;12.50;94.30
42663;DHT22;44330;51.360;6.686;2022-10-23T01:33:03;12.50;94.30
42663;DHT22;44330;51.360;6.686;2022-10-23T01:35:41;12.50;94.30
42663;DHT22;44330;51.360;6.686;2022-10-23T01:38:43;12.40;94.40
42663;DHT22;44330;51.360;6.686;2022-10-23T01:41:14;12.40;94.40
42663;DHT22;44330;51.360;6.686;2022-10-23T01:46:12;12.40;94.50
42663;DHT22;44330;51.360;6.686;2022-10-23T01:48:41;12.40;94.50
42663;DHT22;44330;51.360;6.686;2022-10-23T01:51:10;12.30;94.40
42663;DHT22;44330;51.360;6.686;2022-10-23T01:53:39;12.30;94.50
42663;DHT22;44330;51.360;6.686;2022-10-23T01:56:12;12.30;94.50
42663;DHT22;44330;51.360;6.686;2022-10-23T01:58:41;12.30;94.60
42663;DHT22;44330;51.360;6.686;2022-10-23T02:01:10;12.30;94.60
42663;DHT22;44330;51.360;6.686;2022-10-23T02:03:38;12.30;94.70
42663;DHT22;44330;51.360;6.686;2022-10-23T02:06:05;12.30;94.80
42663;DHT22;44330;51.360;6.686;2022-10-23T02:08:31;12.40;94.80
42663;DHT22;44330;51.360;6.686;2022-10-23T02:11:06;12.40;94.80
42663;DHT22;44330;51.360;6.686;2022-10-23T02:19:03;12.40;94.80
42663;DHT22;44330;51.360;6.686;2022-10-23T02:21:53;12.40;94.80
42663;DHT22;44330;51.360;6.686;2022-10-23T02:24:42;12.40;94.80
42663;DHT22;44330;51.360;6.686;2022-10-23T02:27:12;12.40;94.80
42663;DHT22;44330;51.360;6.686;2022-10-23T02:29:43;12.40;94.80
42663;DHT22;44330;51.360;6.686;2022-10-23T02:32:10;12.40;94.80
42663;DHT22;44330;51.360;6.686;2022-10-23T02:34:36;12.40;94.80
42663;DHT22;44330;51.360;6.686;2022-10-23T02:37:02;12.40;94.80
42663;DHT22;44330;51.360;6.686;2022-10-23T02:39:28;12.30;94.80
42663;DHT22;44330;51.360;6.686;2022-10-23T02:44:53;12.30;94.80
42663;DHT22;44330;51.360;6.686;2022-10-23T02:47:37;12.30;94.80
42663;DHT22;44330;51.360;6.686;2022-10-23T02:50:20;12.30;94.80
42663;DHT22;44330;51.360;6.686;2022-10-23T02:53:15;12.30;94.80
42663;DHT22;44330;51.360;6.686;2022-10-23T02:55:57;12.30;94.90
42663;DHT22;44330;51.360;6.686;2022-10-23T03:01:07;12.20;94.80
42663;DHT22;44330;51.360;6.686;2022-10-23T03:03:38;12.20;94.80
42663;DHT22;44330;51.360;6.686;2022-10-23T03:06:05;12.20;94.90
42663;DHT22;44330;51.360;6.686;2022-10-23T03:08:51;12.10;94.90
42663;DHT22;44330;51.360;6.686;2022-10-23T03:11:17;12.10;94.90
42663;DHT22;44330;51.360;6.686;2022-10-23T03:13:42;12.10;94.90
42663;DHT22;44330;51.360;6.686;2022-10-23T03:16:08;12.10;94.90
42663;DHT22;44330;51.360;6.686;2022-10-23T03:18:34;12.10;95.00
42663;DHT22;44330;51.360;6.686;2022-10-23T03:20:59;12.10;95.00
42663;DHT22;44330;51.360;6.686;2022-10-23T03:23:25;12.10;95.00
42663;DHT22;44330;51.360;6.686;2022-10-23T03:25:52;12.10;95.00
42663;DHT22;44330;51.360;6.686;2022-10-23T03:28:18;12.10;95.10
42663;DHT22;44330;51.360;6.686;2022-10-23T03:30:43;12.20;95.10
42663;DHT22;44330;51.360;6.686;2022-10-23T03:33:09;12.20;95.10
42663;DHT22;44330;51.360;6.686;2022-10-23T03:35:34;12.20;95.20
42663;DHT22;44330;51.360;6.686;2022-10-23T03:38:00;12.20;95.10
42663;DHT22;44330;51.360;6.686;2022-10-23T03:40:25;12.20;95.20
42663;DHT22;44330;51.360;6.686;2022-10-23T03:42:51;12.20;95.20
42663;DHT22;44330;51.360;6.686;2022-10-23T03:45:16;12.20;95.20
42663;DHT22;44330;51.360;6.686;2022-10-23T03:47:42;12.30;95.20
42663;DHT22;44330;51.360;6.686;2022-10-23T03:50:10;12.30;95.20
42663;DHT22;44330;51.360;6.686;2022-10-23T03:52:35;12.30;95.20
42663;DHT22;44330;51.360;6.686;2022-10-23T03:55:01;12.30;95.20
42663;DHT22;44330;51.360;6.686;2022-10-23T03:57:27;12.20;95.20
42663;DHT22;44330;51.360;6.686;2022-10-23T03:59:53;12.20;95.20
42663;DHT22;44330;51.360;6.686;2022-10-23T04:02:18;12.30;95.30
42663;DHT22;44330;51.360;6.686;2022-10-23T04:04:44;12.30;95.30
42663;DHT22;44330;51.360;6.686;2022-10-23T04:07:09;12.30;95.30
42663;DHT22;44330;51.360;6.686;2022-10-23T04:09:35;12.30;95.30
42663;DHT22;44330;51.360;6.686;2022-10-23T04:12:00;12.40;95.40
42663;DHT22;44330;51.360;6.686;2022-10-23T04:14:26;12.40;95.40
42663;DHT22;44330;51.360;6.686;2022-10-23T04:16:52;12.40;95.30
42663;DHT22;44330;51.360;6.686;2022-10-23T04:19:17;12.40;95.30
42663;DHT22;44330;51.360;6.686;2022-10-23T04:21:43;12.50;95.40
42663;DHT22;44330;51.360;6.686;2022-10-23T04:24:09;12.50;95.50
42663;DHT22;44330;51.360;6.686;2022-10-23T04:26:34;12.50;95.50
42663;DHT22;44330;51.360;6.686;2022-10-23T04:29:00;12.50;95.30
42663;DHT22;44330;51.360;6.686;2022-10-23T04:31:26;12.50;95.30
42663;DHT22;44330;51.360;6.686;2022-10-23T04:33:51;12.40;95.30
42663;DHT22;44330;51.360;6.686;2022-10-23T04:36:16;12.40;95.20
42663;DHT22;44330;51.360;6.686;2022-10-23T04:38:42;12.40;95.30
42663;DHT22;44330;51.360;6.686;2022-10-23T04:41:08;12.50;95.30
42663;DHT22;44330;51.360;6.686;2022-10-23T04:43:33;12.50;95.20
42663;DHT22;44330;51.360;6.686;2022-10-23T04:45:59;12.50;95.20
42663;DHT22;44330;51.360;6.686;2022-10-23T04:48:24;12.50;95.20
42663;DHT22;44330;51.360;6.686;2022-10-23T04:51:02;12.50;95.20
42663;DHT22;44330;51.360;6.686;2022-10-23T04:53:28;12.60;95.20
42663;DHT22;44330;51.360;6.686;2022-10-23T04:55:56;12.60;95.20
42663;DHT22;44330;51.360;6.686;2022-10-23T04:58:22;12.60;95.10
42663;DHT22;44330;51.360;6.686;2022-10-23T05:00:48;12.70;95.10
42663;DHT22;44330;51.360;6.686;2022-10-23T05:03:15;12.70;95.10
42663;DHT22;44330;51.360;6.686;2022-10-23T05:05:41;12.80;95.10
42663;DHT22;44330;51.360;6.686;2022-10-23T05:08:07;12.80;95.10
42663;DHT22;44330;51.360;6.686;2022-10-23T05:10:32;12.90;95.20
42663;DHT22;44330;51.360;6.686;2022-10-23T05:12:58;13.00;95.10
42663;DHT22;44330;51.360;6.686;2022-10-23T05:15:24;13.00;95.00
42663;DHT22;44330;51.360;6.686;2022-10-23T05:17:53;13.10;94.90
42663;DHT22;44330;51.360;6.686;2022-10-23T05:20:27;13.20;94.80
42663;DHT22;44330;51.360;6.686;2022-10-23T05:22:55;13.40;94.50
42663;DHT22;44330;51.360;6.686;2022-10-23T05:25:23;13.40;94.10
42663;DHT22;44330;51.360;6.686;2022-10-23T05:27:49;13.50;93.80
42663;DHT22;44330;51.360;6.686;2022-10-23T05:30:14;13.50;93.60
42663;DHT22;44330;51.360;6.686;2022-10-23T05:32:40;13.50;93.50
42663;DHT22;44330;51.360;6.686;2022-10-23T05:35:08;13.60;93.20
42663;DHT22;44330;51.360;6.686;2022-10-23T05:37:41;13.50;93.00
42663;DHT22;44330;51.360;6.686;2022-10-23T05:40:08;13.50;92.90
42663;DHT22;44330;51.360;6.686;2022-10-23T05:42:33;13.60;92.70
42663;DHT22;44330;51.360;6.686;2022-10-23T05:44:59;13.60;92.50
42663;DHT22;44330;51.360;6.686;2022-10-23T05:47:24;13.50;92.60
42663;DHT22;44330;51.360;6.686;2022-10-23T05:49:50;13.60;92.80
42663;DHT22;44330;51.360;6.686;2022-10-23T05:52:15;13.50;92.70
42663;DHT22;44330;51.360;6.686;2022-10-23T05:54:43;13.60;92.70
42663;DHT22;44330;51.360;6.686;2022-10-23T05:57:08;13.50;92.70
42663;DHT22;44330;51.360;6.686;2022-10-23T05:59:34;13.40;92.80
42663;DHT22;44330;51.360;6.686;2022-10-23T06:01:59;13.40;92.90
42663;DHT22;44330;51.360;6.686;2022-10-23T06:04:25;13.30;93.10
42663;DHT22;44330;51.360;6.686;2022-10-23T06:06:50;13.30;93.20
42663;DHT22;44330;51.360;6.686;2022-10-23T06:09:16;13.30;93.30
42663;DHT22;44330;51.360;6.686;2022-10-23T06:11:42;13.20;93.40
42663;DHT22;44330;51.360;6.686;2022-10-23T06:14:07;13.20;93.50
42663;DHT22;44330;51.360;6.686;2022-10-23T06:16:33;13.20;93.50
42663;DHT22;44330;51.360;6.686;2022-10-23T06:18:59;13.20;93.50
42663;DHT22;44330;51.360;6.686;2022-10-23T06:21:25;13.20;93.50
42663;DHT22;44330;51.360;6.686;2022-10-23T06:23:50;13.20;93.50
42663;DHT22;44330;51.360;6.686;2022-10-23T06:26:17;13.20;93.60
42663;DHT22;44330;51.360;6.686;2022-10-23T06:28:43;13.10;93.60
42663;DHT22;44330;51.360;6.686;2022-10-23T06:31:11;13.20;93.60
42663;DHT22;44330;51.360;6.686;2022-10-23T06:33:37;13.10;93.60
42663;DHT22;44330;51.360;6.686;2022-10-23T06:36:03;13.20;93.70
42663;DHT22;44330;51.360;6.686;2022-10-23T06:38:30;13.10;93.50
42663;DHT22;44330;51.360;6.686;2022-10-23T06:41:01;13.10;93.60
42663;DHT22;44330;51.360;6.686;2022-10-23T06:43:27;13.10;93.80
42663;DHT22;44330;51.360;6.686;2022-10-23T06:45:52;13.10;93.80
42663;DHT22;44330;51.360;6.686;2022-10-23T06:48:18;13.20;93.90
42663;DHT22;44330;51.360;6.686;2022-10-23T06:50:43;13.20;93.90
42663;DHT22;44330;51.360;6.686;2022-10-23T06:53:09;13.20;93.90
42663;DHT22;44330;51.360;6.686;2022-10-23T06:55:37;13.20;93.80
42663;DHT22;44330;51.360;6.686;2022-10-23T06:58:06;13.20;93.80
42663;DHT22;44330;51.360;6.686;2022-10-23T07:00:36;13.20;93.80
42663;DHT22;44330;51.360;6.686;2022-10-23T07:03:03;13.30;93.70
42663;DHT22;44330;51.360;6.686;2022-10-23T07:05:28;13.30;93.60
42663;DHT22;44330;51.360;6.686;2022-10-23T07:07:54;13.30;93.60
42663;DHT22;44330;51.360;6.686;2022-10-23T07:10:20;13.40;93.50
42663;DHT22;44330;51.360;6.686;2022-10-23T07:12:45;13.40;93.50
42663;DHT22;44330;51.360;6.686;2022-10-23T07:15:13;13.40;93.50
42663;DHT22;44330;51.360;6.686;2022-10-23T07:17:39;13.40;93.50
42663;DHT22;44330;51.360;6.686;2022-10-23T07:20:04;13.40;93.50
42663;DHT22;44330;51.360;6.686;2022-10-23T07:22:30;13.50;93.60
42663;DHT22;44330;51.360;6.686;2022-10-23T07:24:56;13.50;93.60
42663;DHT22;44330;51.360;6.686;2022-10-23T07:27:21;13.50;93.60
42663;DHT22;44330;51.360;6.686;2022-10-23T07:29:49;13.50;93.60
42663;DHT22;44330;51.360;6.686;2022-10-23T07:32:15;13.50;93.60
42663;DHT22;44330;51.360;6.686;2022-10-23T07:34:40;13.60;93.60
42663;DHT22;44330;51.360;6.686;2022-10-23T07:37:06;13.60;93.70
42663;DHT22;44330;51.360;6.686;2022-10-23T07:39:32;13.60;93.70
42663;DHT22;44330;51.360;6.686;2022-10-23T07:41:57;13.70;93.80
42663;DHT22;44330;51.360;6.686;2022-10-23T07:44:23;13.70;93.70
42663;DHT22;44330;51.360;6.686;2022-10-23T07:46:48;13.80;93.80
42663;DHT22;44330;51.360;6.686;2022-10-23T07:49:14;13.80;93.80
42663;DHT22;44330;51.360;6.686;2022-10-23T07:51:40;13.90;93.80
42663;DHT22;44330;51.360;6.686;2022-10-23T07:54:07;14.00;93.70
42663;DHT22;44330;51.360;6.686;2022-10-23T07:56:35;14.10;93.60
42663;DHT22;44330;51.360;6.686;2022-10-23T07:59:00;14.30;93.00
42663;DHT22;44330;51.360;6.686;2022-10-23T08:01:33;14.40;92.40
42663;DHT22;44330;51.360;6.686;2022-10-23T08:04:01;14.50;91.70
42663;DHT22;44330;51.360;6.686;2022-10-23T08:06:27;14.70;90.80
42663;DHT22;44330;51.360;6.686;2022-10-23T08:09:34;14.90;89.50
42663;DHT22;44330;51.360;6.686;2022-10-23T08:12:05;15.00;88.60
42663;DHT22;44330;51.360;6.686;2022-10-23T08:14:37;15.10;88.10
42663;DHT22;44330;51.360;6.686;2022-10-23T08:17:02;15.30;86.80
42663;DHT22;44330;51.360;6.686;2022-10-23T08:19:29;15.40;86.10
42663;DHT22;44330;51.360;6.686;2022-10-23T08:21:54;15.50;84.40
42663;DHT22;44330;51.360;6.686;2022-10-23T08:24:21;15.70;81.70
42663;DHT22;44330;51.360;6.686;2022-10-23T08:26:48;15.90;80.50
42663;DHT22;44330;51.360;6.686;2022-10-23T08:29:14;16.10;78.00
42663;DHT22;44330;51.360;6.686;2022-10-23T08:31:40;16.20;75.60
42663;DHT22;44330;51.360;6.686;2022-10-23T08:34:05;16.30;76.10
42663;DHT22;44330;51.360;6.686;2022-10-23T08:36:31;16.40;75.90
42663;DHT22;44330;51.360;6.686;2022-10-23T08:38:57;16.50;74.80
42663;DHT22;44330;51.360;6.686;2022-10-23T08:41:35;16.60;70.80
42663;DHT22;44330;51.360;6.686;2022-10-23T08:44:31;16.80;63.80
42663;DHT22;44330;51.360;6.686;2022-10-23T08:51:54;17.00;58.80
42663;DHT22;44330;51.360;6.686;2022-10-23T08:54:23;16.90;60.00
42663;DHT22;44330;51.360;6.686;2022-10-23T08:57:02;16.90;63.00
42663;DHT22;44330;51.360;6.686;2022-10-23T08:59:37;16.90;61.10
42663;DHT22;44330;51.360;6.686;2022-10-23T09:03:08;17.00;60.60
42663;DHT22;44330;51.360;6.686;2022-10-23T09:05:02;16.90;63.00
42663;DHT22;44330;51.360;6.686;2022-10-23T09:10:36;16.90;63.90
42663;DHT22;44330;51.360;6.686;2022-10-23T09:13:35;17.00;61.40
42663;DHT22;44330;51.360;6.686;2022-10-23T09:18:41;17.10;60.20
42663;DHT22;44330;51.360;6.686;2022-10-23T09:21:10;17.10;63.10
42663;DHT22;44330;51.360;6.686;2022-10-23T09:23:35;17.20;60.50
42663;DHT22;44330;51.360;6.686;2022-10-23T09:26:24;17.20;61.40
42663;DHT22;44330;51.360;6.686;2022-10-23T09:28:54;17.20;58.20
42663;DHT22;44330;51.360;6.686;2022-10-23T09:31:21;17.30;55.70
42663;DHT22;44330;51.360;6.686;2022-10-23T09:34:00;17.40;52.10
42663;DHT22;44330;51.360;6.686;2022-10-23T09:36:27;17.40;51.10
42663;DHT22;44330;51.360;6.686;2022-10-23T09:38:55;17.40;50.40
42663;DHT22;44330;51.360;6.686;2022-10-23T09:41:30;17.60;48.80
42663;DHT22;44330;51.360;6.686;2022-10-23T09:46:57;17.60;47.70
42663;DHT22;44330;51.360;6.686;2022-10-23T09:49:28;17.70;49.30
42663;DHT22;44330;51.360;6.686;2022-10-23T09:52:18;17.70;47.80
42663;DHT22;44330;51.360;6.686;2022-10-23T09:54:55;17.80;51.30
42663;DHT22;44330;51.360;6.686;2022-10-23T10:00:05;18.10;38.50
42663;DHT22;44330;51.360;6.686;2022-10-23T10:02:34;18.10;37.60
42663;DHT22;44330;51.360;6.686;2022-10-23T10:05:25;18.20;36.00
42663;DHT22;44330;51.360;6.686;2022-10-23T10:08:02;18.20;42.00
42663;DHT22;44330;51.360;6.686;2022-10-23T10:10:41;18.30;31.70
42663;DHT22;44330;51.360;6.686;2022-10-23T10:15:49;18.30;30.30
42663;DHT22;44330;51.360;6.686;2022-10-23T10:18:26;18.40;33.10
42663;DHT22;44330;51.360;6.686;2022-10-23T10:21:01;18.30;25.70
42663;DHT22;44330;51.360;6.686;2022-10-23T10:23:46;18.30;25.20
42663;DHT22;44330;51.360;6.686;2022-10-23T10:26:35;18.40;23.10
42663;DHT22;44330;51.360;6.686;2022-10-23T10:29:16;18.50;20.10
42663;DHT22;44330;51.360;6.686;2022-10-23T10:32:22;18.50;25.30
42663;DHT22;44330;51.360;6.686;2022-10-23T10:35:21;18.50;24.80
42663;DHT22;44330;51.360;6.686;2022-10-23T10:38:20;18.50;21.60
42663;DHT22;44330;51.360;6.686;2022-10-23T10:40:50;18.50;22.20
42663;DHT22;44330;51.360;6.686;2022-10-23T10:45:59;18.60;24.80
42663;DHT22;44330;51.360;6.686;2022-10-23T10:48:32;18.60;30.00
42663;DHT22;44330;51.360;6.686;2022-10-23T10:51:14;18.70;32.70
42663;DHT22;44330;51.360;6.686;2022-10-23T10:56:46;18.80;26.70
42663;DHT22;44330;51.360;6.686;2022-10-23T10:59:31;19.00;16.90
42663;DHT22;44330;51.360;6.686;2022-10-23T11:04:48;19.10;10.70
42663;DHT22;44330;51.360;6.686;2022-10-23T11:07:21;19.10;4.70
42663;DHT22;44330;51.360;6.686;2022-10-23T11:09:48;19.20;14.30
42663;DHT22;44330;51.360;6.686;2022-10-23T11:12:25;19.20;9.40
42663;DHT22;44330;51.360;6.686;2022-10-23T11:14:51;19.10;8.70
42663;DHT22;44330;51.360;6.686;2022-10-23T11:17:25;19.20;7.40
42663;DHT22;44330;51.360;6.686;2022-10-23T11:22:47;19.10;14.80
42663;DHT22;44330;51.360;6.686;2022-10-23T11:28:15;19.20;11.70
42663;DHT22;44330;51.360;6.686;2022-10-23T11:31:04;19.20;9.80
42663;DHT22;44330;51.360;6.686;2022-10-23T11:36:18;19.30;1.00
42663;DHT22;44330;51.360;6.686;2022-10-23T11:38:46;19.30;1.00
42663;DHT22;44330;51.360;6.686;2022-10-23T11:43:51;19.30;1.00
42663;DHT22;44330;51.360;6.686;2022-10-23T11:48:54;19.20;1.00
42663;DHT22;44330;51.360;6.686;2022-10-23T11:51:38;19.20;1.00
42663;DHT22;44330;51.360;6.686;2022-10-23T11:57:13;19.20;1.00
42663;DHT22;44330;51.360;6.686;2022-10-23T11:59:51;19.10;1.00
42663;DHT22;44330;51.360;6.686;2022-10-23T12:04:53;19.30;1.00
42663;DHT22;44330;51.360;6.686;2022-10-23T12:07:32;19.40;1.00
42663;DHT22;44330;51.360;6.686;2022-10-23T12:10:16;19.60;1.00
42663;DHT22;44330;51.360;6.686;2022-10-23T12:12:54;19.70;1.00
42663;DHT22;44330;51.360;6.686;2022-10-23T12:15:21;19.80;1.00
42663;DHT22;44330;51.360;6.686;2022-10-23T12:17:48;19.80;1.00
42663;DHT22;44330;51.360;6.686;2022-10-23T12:20:23;19.90;1.00
42663;DHT22;44330;51.360;6.686;2022-10-23T12:36:57;20.10;1.00
42663;DHT22;44330;51.360;6.686;2022-10-23T12:41:55;20.00;1.00
42663;DHT22;44330;51.360;6.686;2022-10-23T12:44:22;20.00;1.00
42663;DHT22;44330;51.360;6.686;2022-10-23T12:46:58;19.90;1.00
42663;DHT22;44330;51.360;6.686;2022-10-23T12:49:26;20.00;1.00
42663;DHT22;44330;51.360;6.686;2022-10-23T12:52:03;20.00;1.00
42663;DHT22;44330;51.360;6.686;2022-10-23T12:54:31;20.00;1.00
42663;DHT22;44330;51.360;6.686;2022-10-23T12:56:57;20.00;1.00
42663;DHT22;44330;51.360;6.686;2022-10-23T12:59:25;20.10;1.00
42663;DHT22;44330;51.360;6.686;2022-10-23T13:01:52;20.10;1.00
42663;DHT22;44330;51.360;6.686;2022-10-23T13:04:28;20.00;1.00
42663;DHT22;44330;51.360;6.686;2022-10-23T13:06:56;20.00;1.00
42663;DHT22;44330;51.360;6.686;2022-10-23T13:11:53;19.90;1.00
42663;DHT22;44330;51.360;6.686;2022-10-23T13:14:30;19.90;1.00
42663;DHT22;44330;51.360;6.686;2022-10-23T13:17:01;19.90;1.00
42663;DHT22;44330;51.360;6.686;2022-10-23T13:19:27;20.00;1.00
42663;DHT22;44330;51.360;6.686;2022-10-23T13:21:52;19.90;1.00
42663;DHT22;44330;51.360;6.686;2022-10-23T13:24:19;19.80;1.00
42663;DHT22;44330;51.360;6.686;2022-10-23T13:26:46;19.90;1.00
42663;DHT22;44330;51.360;6.686;2022-10-23T13:29:26;19.80;1.00
42663;DHT22;44330;51.360;6.686;2022-10-23T13:31:53;19.70;1.00
42663;DHT22;44330;51.360;6.686;2022-10-23T13:36:53;19.60;1.00
42663;DHT22;44330;51.360;6.686;2022-10-23T13:39:27;19.60;1.00
42663;DHT22;44330;51.360;6.686;2022-10-23T13:41:54;19.50;1.00
42663;DHT22;44330;51.360;6.686;2022-10-23T13:44:21;19.50;1.00
42663;DHT22;44330;51.360;6.686;2022-10-23T13:46:47;19.60;1.00
42663;DHT22;44330;51.360;6.686;2022-10-23T13:49:17;19.60;1.00
42663;DHT22;44330;51.360;6.686;2022-10-23T13:51:54;19.50;1.00
42663;DHT22;44330;51.360;6.686;2022-10-23T13:54:27;19.50;1.00
42663;DHT22;44330;51.360;6.686;2022-10-23T13:56:54;19.50;1.00
42663;DHT22;44330;51.360;6.686;2022-10-23T13:59:20;19.40;1.00
42663;DHT22;44330;51.360;6.686;2022-10-23T14:01:47;19.50;1.00
42663;DHT22;44330;51.360;6.686;2022-10-23T14:04:15;19.40;1.00
42663;DHT22;44330;51.360;6.686;2022-10-23T14:06:41;19.40;1.00
42663;DHT22;44330;51.360;6.686;2022-10-23T14:09:13;19.40;1.00
42663;DHT22;44330;51.360;6.686;2022-10-23T14:11:39;19.50;1.00
42663;DHT22;44330;51.360;6.686;2022-10-23T14:14:05;19.50;1.00
42663;DHT22;44330;51.360;6.686;2022-10-23T14:16:31;19.40;1.00
42663;DHT22;44330;51.360;6.686;2022-10-23T14:18:56;19.40;1.00
42663;DHT22;44330;51.360;6.686;2022-10-23T14:21:23;19.40;1.00
42663;DHT22;44330;51.360;6.686;2022-10-23T14:23:50;19.40;3.00
42663;DHT22;44330;51.360;6.686;2022-10-23T14:26:19;19.30;8.90
42663;DHT22;44330;51.360;6.686;2022-10-23T14:28:47;19.30;5.30
42663;DHT22;44330;51.360;6.686;2022-10-23T14:31:17;19.30;4.40
42663;DHT22;44330;51.360;6.686;2022-10-23T14:33:44;19.40;1.50
42663;DHT22;44330;51.360;6.686;2022-10-23T14:36:10;19.40;9.00
42663;DHT22;44330;51.360;6.686;2022-10-23T14:38:36;19.40;7.50
42663;DHT22;44330;51.360;6.686;2022-10-23T14:41:12;19.40;5.00
42663;DHT22;44330;51.360;6.686;2022-10-23T14:43:41;19.40;5.20
42663;DHT22;44330;51.360;6.686;2022-10-23T14:46:12;19.30;9.70
42663;DHT22;44330;51.360;6.686;2022-10-23T14:48:38;19.30;9.00
42663;DHT22;44330;51.360;6.686;2022-10-23T14:51:06;19.20;7.30
42663;DHT22;44330;51.360;6.686;2022-10-23T14:53:33;19.20;9.60
42663;DHT22;44330;51.360;6.686;2022-10-23T14:56:02;19.20;9.50
42663;DHT22;44330;51.360;6.686;2022-10-23T14:58:28;19.20;13.90
42663;DHT22;44330;51.360;6.686;2022-10-23T15:00:58;19.20;12.40
42663;DHT22;44330;51.360;6.686;2022-10-23T15:03:26;19.20;10.10
42663;DHT22;44330;51.360;6.686;2022-10-23T15:05:51;19.10;9.70
42663;DHT22;44330;51.360;6.686;2022-10-23T15:08:17;19.00;15.70
42663;DHT22;44330;51.360;6.686;2022-10-23T15:10:43;18.90;25.30
42663;DHT22;44330;51.360;6.686;2022-10-23T15:13:08;18.90;37.10
42663;DHT22;44330;51.360;6.686;2022-10-23T15:15:34;18.80;38.80
42663;DHT22;44330;51.360;6.686;2022-10-23T15:17:59;18.80;34.40
42663;DHT22;44330;51.360;6.686;2022-10-23T15:20:25;18.80;34.50
42663;DHT22;44330;51.360;6.686;2022-10-23T15:22:51;18.70;34.10
42663;DHT22;44330;51.360;6.686;2022-10-23T15:25:16;18.70;36.70
42663;DHT22;44330;51.360;6.686;2022-10-23T15:27:42;18.60;39.80
42663;DHT22;44330;51.360;6.686;2022-10-23T15:30:07;18.60;41.90
42663;DHT22;44330;51.360;6.686;2022-10-23T15:32:33;18.50;41.80
42663;DHT22;44330;51.360;6.686;2022-10-23T15:34:59;18.50;44.30
42663;DHT22;44330;51.360;6.686;2022-10-23T15:37:25;18.40;45.90
42663;DHT22;44330;51.360;6.686;2022-10-23T15:39:50;18.40;48.10
42663;DHT22;44330;51.360;6.686;2022-10-23T15:42:16;18.30;49.70
42663;DHT22;44330;51.360;6.686;2022-10-23T15:44:43;18.30;50.80
42663;DHT22;44330;51.360;6.686;2022-10-23T15:47:09;18.20;55.50
42663;DHT22;44330;51.360;6.686;2022-10-23T15:49:35;18.20;56.60
42663;DHT22;44330;51.360;6.686;2022-10-23T15:52:01;18.20;62.10
42663;DHT22;44330;51.360;6.686;2022-10-23T15:54:28;18.10;66.90
42663;DHT22;44330;51.360;6.686;2022-10-23T15:56:54;18.00;70.30
42663;DHT22;44330;51.360;6.686;2022-10-23T15:59:21;17.80;70.60
42663;DHT22;44330;51.360;6.686;2022-10-23T16:01:47;17.80;71.80
42663;DHT22;44330;51.360;6.686;2022-10-23T16:04:14;17.70;74.40
42663;DHT22;44330;51.360;6.686;2022-10-23T16:06:40;17.60;76.80
42663;DHT22;44330;51.360;6.686;2022-10-23T16:09:06;17.50;77.50
42663;DHT22;44330;51.360;6.686;2022-10-23T16:11:36;17.40;77.90
42663;DHT22;44330;51.360;6.686;2022-10-23T16:14:03;17.40;77.30
42663;DHT22;44330;51.360;6.686;2022-10-23T16:16:30;17.40;78.40
42663;DHT22;44330;51.360;6.686;2022-10-23T16:19:00;17.30;77.00
42663;DHT22;44330;51.360;6.686;2022-10-23T16:21:28;17.30;78.40
42663;DHT22;44330;51.360;6.686;2022-10-23T16:23:57;17.20;79.50
42663;DHT22;44330;51.360;6.686;2022-10-23T16:26:24;17.30;79.20
42663;DHT22;44330;51.360;6.686;2022-10-23T16:28:54;17.30;79.80
42663;DHT22;44330;51.360;6.686;2022-10-23T16:31:23;17.30;79.50
42663;DHT22;44330;51.360;6.686;2022-10-23T16:33:49;17.30;80.70
42663;DHT22;44330;51.360;6.686;2022-10-23T16:36:17;17.20;81.50
42663;DHT22;44330;51.360;6.686;2022-10-23T16:38:42;17.20;82.40
42663;DHT22;44330;51.360;6.686;2022-10-23T16:41:08;17.20;83.30
42663;DHT22;44330;51.360;6.686;2022-10-23T16:43:34;17.10;83.80
42663;DHT22;44330;51.360;6.686;2022-10-23T16:48:26;17.00;85.10
42663;DHT22;44330;51.360;6.686;2022-10-23T16:50:52;17.10;86.70
42663;DHT22;44330;51.360;6.686;2022-10-23T16:53:17;17.10;87.40
42663;DHT22;44330;51.360;6.686;2022-10-23T16:55:43;17.10;87.90
42663;DHT22;44330;51.360;6.686;2022-10-23T16:58:08;16.90;88.80
42663;DHT22;44330;51.360;6.686;2022-10-23T17:00:34;16.90;88.10
42663;DHT22;44330;51.360;6.686;2022-10-23T17:03:01;16.80;89.30
42663;DHT22;44330;51.360;6.686;2022-10-23T17:05:27;16.80;90.10
42663;DHT22;44330;51.360;6.686;2022-10-23T17:07:53;16.80;89.90
42663;DHT22;44330;51.360;6.686;2022-10-23T17:10:19;16.70;90.40
42663;DHT22;44330;51.360;6.686;2022-10-23T17:12:44;16.70;90.40
42663;DHT22;44330;51.360;6.686;2022-10-23T17:15:10;16.70;90.40
42663;DHT22;44330;51.360;6.686;2022-10-23T17:17:36;16.70;90.30
42663;DHT22;44330;51.360;6.686;2022-10-23T17:20:03;16.80;90.50
42663;DHT22;44330;51.360;6.686;2022-10-23T17:22:28;16.70;90.70
42663;DHT22;44330;51.360;6.686;2022-10-23T17:24:54;16.70;90.80
42663;DHT22;44330;51.360;6.686;2022-10-23T17:27:20;16.70;90.70